createdAt,value
2023-01-11T00:02:19.532Z,9.35
2023-01-11T00:04:47.493Z,9.37
2023-01-11T00:07:13.847Z,9.40
2023-01-11T00:09:40.181Z,9.43
2023-01-11T00:12:08.165Z,9.47
2023-01-11T00:14:34.505Z,9.50
2023-01-11T00:17:00.884Z,9.56
2023-01-11T00:19:27.235Z,9.58
2023-01-11T00:21:53.557Z,9.60
2023-01-11T00:24:19.916Z,9.61
2023-01-11T00:26:46.386Z,9.62
2023-01-11T00:29:12.769Z,9.65
2023-01-11T00:31:39.171Z,9.67
2023-01-11T00:34:05.597Z,9.71
2023-01-11T00:36:31.958Z,9.72
2023-01-11T00:38:58.269Z,9.74
2023-01-11T00:41:43.195Z,9.74
2023-01-11T00:44:29.581Z,9.76
2023-01-11T00:47:15.304Z,9.77
2023-01-11T00:49:42.709Z,9.79
2023-01-11T00:52:10.219Z,9.79
2023-01-11T00:54:40.063Z,9.83
2023-01-11T00:57:07.719Z,9.83
2023-01-11T00:59:39.473Z,9.85
2023-01-11T01:02:06.017Z,9.88
2023-01-11T01:04:32.644Z,9.88
2023-01-11T01:06:59.080Z,9.88
2023-01-11T01:09:26.149Z,9.90
2023-01-11T01:11:52.534Z,9.92
2023-01-11T01:14:30.762Z,9.95
2023-01-11T01:17:08.766Z,9.95
2023-01-11T01:19:37.466Z,9.97
2023-01-11T01:22:04.037Z,9.98
2023-01-11T01:24:31.146Z,9.99
2023-01-11T01:26:58.458Z,10.00
2023-01-11T01:29:25.725Z,10.02
2023-01-11T01:31:52.166Z,10.04
2023-01-11T01:34:18.514Z,10.05
2023-01-11T01:36:44.872Z,10.04
2023-01-11T01:39:12.811Z,10.05
2023-01-11T01:41:39.512Z,10.05
2023-01-11T01:44:44.136Z,10.09
2023-01-11T01:47:11.356Z,10.13
2023-01-11T01:49:38.433Z,10.14
2023-01-11T01:52:04.858Z,10.15
2023-01-11T01:54:35.775Z,10.15
2023-01-11T01:57:09.081Z,10.14
2023-01-11T01:59:35.964Z,10.19
2023-01-11T02:02:02.446Z,10.21
2023-01-11T02:04:38.731Z,10.22
2023-01-11T02:07:10.568Z,10.23
2023-01-11T02:12:37.340Z,10.23
2023-01-11T02:15:04.359Z,10.23
2023-01-11T02:17:30.724Z,10.27
2023-01-11T02:20:14.111Z,10.28
2023-01-11T02:23:02.188Z,10.29
2023-01-11T02:25:59.432Z,10.30
2023-01-11T02:28:28.724Z,10.32
2023-01-11T02:31:29.677Z,10.33
2023-01-11T02:34:15.075Z,10.31
2023-01-11T02:36:50.125Z,10.32
2023-01-11T02:39:35.566Z,10.35
2023-01-11T02:42:45.240Z,10.38
2023-01-11T02:45:34.896Z,10.35
2023-01-11T02:48:26.364Z,10.37
2023-01-11T02:51:07.960Z,10.43
2023-01-11T02:53:56.385Z,10.45
2023-01-11T02:56:26.868Z,10.47
2023-01-11T02:58:56.857Z,10.48
2023-01-11T03:01:25.370Z,10.49
2023-01-11T03:03:53.078Z,10.46
2023-01-11T03:06:28.434Z,10.48
2023-01-11T03:09:19.633Z,10.49
2023-01-11T03:12:46.812Z,10.51
2023-01-11T03:15:25.926Z,10.54
2023-01-11T03:18:15.937Z,10.55
2023-01-11T03:20:49.154Z,10.55
2023-01-11T03:23:33.765Z,10.55
2023-01-11T03:26:23.014Z,10.54
2023-01-11T03:29:00.397Z,10.56
2023-01-11T03:32:01.476Z,10.57
2023-01-11T03:34:37.272Z,10.61
2023-01-11T03:37:07.201Z,10.60
2023-01-11T03:39:43.099Z,10.60
2023-01-11T03:42:11.754Z,10.64
2023-01-11T03:44:43.669Z,10.61
2023-01-11T03:47:14.952Z,10.58
2023-01-11T03:49:56.057Z,10.58
2023-01-11T03:52:28.640Z,10.62
2023-01-11T03:54:56.395Z,10.60
2023-01-11T03:57:28.645Z,10.59
2023-01-11T03:59:55.103Z,10.59
2023-01-11T04:02:25.734Z,10.60
2023-01-11T04:04:52.542Z,10.60
2023-01-11T04:07:18.924Z,10.60
2023-01-11T04:09:46.360Z,10.60
2023-01-11T04:12:12.846Z,10.58
2023-01-11T04:14:39.204Z,10.59
2023-01-11T04:17:05.633Z,10.58
2023-01-11T04:19:32.031Z,10.57
2023-01-11T04:21:58.364Z,10.57
2023-01-11T04:24:24.725Z,10.57
2023-01-11T04:26:51.073Z,10.59
2023-01-11T04:29:17.435Z,10.58
2023-01-11T04:31:43.859Z,10.57
2023-01-11T04:34:12.158Z,10.58
2023-01-11T04:36:38.501Z,10.59
2023-01-11T04:39:06.373Z,10.58
2023-01-11T04:41:51.196Z,10.59
2023-01-11T04:44:17.533Z,10.59
2023-01-11T04:46:43.898Z,10.58
2023-01-11T04:49:10.268Z,10.58
2023-01-11T04:51:36.612Z,10.53
2023-01-11T04:54:03.053Z,10.54
2023-01-11T04:56:29.533Z,10.53
2023-01-11T04:58:55.945Z,10.50
2023-01-11T05:01:22.341Z,10.51
2023-01-11T05:03:48.889Z,10.51
2023-01-11T05:06:15.786Z,10.51
2023-01-11T05:08:46.849Z,10.49
2023-01-11T05:11:13.804Z,10.48
2023-01-11T05:13:43.289Z,10.51
2023-01-11T05:16:18.408Z,10.48
2023-01-11T05:18:56.431Z,10.45
2023-01-11T05:21:27.583Z,10.40
2023-01-11T05:23:54.489Z,10.40
2023-01-11T05:26:23.818Z,10.34
2023-01-11T05:28:51.610Z,10.32
2023-01-11T05:31:18.687Z,10.31
2023-01-11T05:33:45.179Z,10.27
2023-01-11T05:36:17.091Z,10.24
2023-01-11T05:38:45.682Z,10.23
2023-01-11T05:41:12.608Z,10.19
2023-01-11T05:43:57.486Z,10.19
2023-01-11T05:46:25.103Z,10.13
2023-01-11T05:48:51.899Z,10.13
2023-01-11T05:51:18.344Z,10.13
2023-01-11T05:53:45.115Z,10.09
2023-01-11T05:56:11.522Z,10.06
2023-01-11T05:58:37.872Z,10.05
2023-01-11T06:01:04.460Z,10.02
2023-01-11T06:03:30.899Z,9.99
2023-01-11T06:05:59.112Z,9.95
2023-01-11T06:08:26.054Z,9.93
2023-01-11T06:10:54.104Z,9.89
2023-01-11T06:13:26.937Z,9.84
2023-01-11T06:16:06.714Z,9.80
2023-01-11T06:18:38.264Z,9.77
2023-01-11T06:21:05.529Z,9.73
2023-01-11T06:23:34.075Z,9.72
2023-01-11T06:26:09.354Z,9.66
2023-01-11T06:28:36.904Z,9.63
2023-01-11T06:31:04.535Z,9.61
2023-01-11T06:33:31.978Z,9.57
2023-01-11T06:35:58.791Z,9.56
2023-01-11T06:38:26.004Z,9.52
2023-01-11T06:40:58.102Z,9.49
2023-01-11T06:43:25.647Z,9.47
2023-01-11T06:45:52.234Z,9.44
2023-01-11T06:48:20.171Z,9.41
2023-01-11T06:50:50.944Z,9.38
2023-01-11T06:53:17.429Z,9.35
2023-01-11T06:55:44.420Z,9.33
2023-01-11T06:58:11.035Z,9.30
2023-01-11T07:00:38.494Z,9.30
2023-01-11T07:03:06.145Z,9.26
2023-01-11T07:05:35.824Z,9.22
2023-01-11T07:08:02.887Z,9.19
2023-01-11T07:10:29.270Z,9.15
2023-01-11T07:12:55.671Z,9.14
2023-01-11T07:15:22.546Z,9.09
2023-01-11T07:17:55.662Z,9.11
2023-01-11T07:20:23.052Z,9.07
2023-01-11T07:22:49.981Z,9.08
2023-01-11T07:25:16.993Z,9.03
2023-01-11T07:27:43.423Z,8.99
2023-01-11T07:30:10.492Z,8.92
2023-01-11T07:32:36.882Z,8.86
2023-01-11T07:35:03.366Z,8.79
2023-01-11T07:37:32.652Z,8.74
2023-01-11T07:39:59.097Z,8.71
2023-01-11T07:42:43.753Z,8.68
2023-01-11T07:45:10.661Z,8.66
2023-01-11T07:47:37.041Z,8.66
2023-01-11T07:50:03.819Z,8.62
2023-01-11T07:52:30.201Z,8.58
2023-01-11T07:55:02.195Z,8.57
2023-01-11T07:57:32.298Z,8.53
2023-01-11T07:59:58.704Z,8.44
2023-01-11T08:02:25.208Z,8.40
2023-01-11T08:04:51.688Z,8.41
2023-01-11T08:07:18.029Z,8.52
2023-01-11T08:09:44.410Z,8.57
2023-01-11T08:12:29.213Z,8.54
2023-01-11T08:14:55.540Z,8.52
2023-01-11T08:17:21.941Z,8.50
2023-01-11T08:19:48.405Z,8.47
2023-01-11T08:22:14.779Z,8.42
2023-01-11T08:24:41.183Z,8.35
2023-01-11T08:27:07.601Z,8.31
2023-01-11T08:29:34.026Z,8.28
2023-01-11T08:32:00.671Z,8.28
2023-01-11T08:34:29.005Z,8.26
2023-01-11T08:36:57.428Z,8.23
2023-01-11T08:39:24.605Z,8.22
2023-01-11T08:41:51.001Z,8.18
2023-01-11T08:44:29.033Z,8.12
2023-01-11T08:46:59.406Z,8.12
2023-01-11T08:49:25.824Z,8.14
2023-01-11T08:51:52.254Z,8.12
2023-01-11T08:54:18.629Z,8.15
2023-01-11T08:56:45.148Z,8.11
2023-01-11T08:59:11.572Z,8.13
2023-01-11T09:01:38.347Z,8.12
2023-01-11T09:04:12.526Z,8.24
2023-01-11T09:06:49.739Z,8.32
2023-01-11T09:09:16.214Z,8.29
2023-01-11T09:11:54.334Z,8.28
2023-01-11T09:14:21.570Z,8.17
2023-01-11T09:16:48.826Z,8.11
2023-01-11T09:19:15.365Z,8.06
2023-01-11T09:21:41.855Z,8.08
2023-01-11T09:24:08.451Z,8.18
2023-01-11T09:26:35.755Z,8.43
2023-01-11T09:29:02.254Z,8.63
2023-01-11T09:31:28.755Z,8.90
2023-01-11T09:33:55.166Z,9.13
2023-01-11T09:36:23.404Z,9.21
2023-01-11T09:38:52.608Z,9.45
2023-01-11T09:41:33.146Z,9.92
2023-01-11T09:44:16.364Z,10.38
2023-01-11T09:46:48.223Z,11.33
2023-01-11T09:49:23.669Z,10.31
2023-01-11T09:51:51.481Z,10.69
2023-01-11T09:54:24.588Z,11.07
2023-01-11T09:57:24.243Z,11.08
2023-01-11T10:00:00.774Z,11.56
2023-01-11T10:02:48.125Z,11.44
2023-01-11T10:05:50.052Z,11.35
2023-01-11T10:18:32.762Z,10.21
2023-01-11T10:18:49.744Z,10.66
2023-01-11T10:21:28.879Z,11.78
2023-01-11T10:24:04.713Z,12.74
2023-01-11T10:26:39.926Z,12.87
2023-01-11T10:29:15.410Z,13.08
2023-01-11T10:32:02.680Z,13.76
2023-01-11T10:35:02.457Z,13.85
2023-01-11T10:37:54.407Z,13.45
2023-01-11T10:41:01.667Z,13.43
2023-01-11T10:43:31.553Z,12.41
2023-01-11T10:46:01.870Z,12.99
2023-01-11T10:48:44.124Z,13.04
2023-01-11T10:51:37.197Z,12.93
2023-01-11T10:54:18.034Z,13.98
2023-01-11T10:57:30.928Z,13.99
2023-01-11T11:00:00.406Z,14.41
2023-01-11T11:02:45.233Z,14.60
2023-01-11T11:05:30.591Z,14.21
2023-01-11T11:08:32.362Z,14.46
2023-01-11T11:11:30.715Z,14.80
2023-01-11T11:14:16.420Z,14.79
2023-01-11T11:17:18.275Z,15.24
2023-01-11T11:19:44.652Z,15.57
2023-01-11T11:22:12.276Z,14.66
2023-01-11T11:25:03.689Z,13.62
2023-01-11T11:27:52.597Z,13.66
2023-01-11T11:30:38.228Z,13.07
2023-01-11T11:33:26.547Z,12.53
2023-01-11T11:36:04.962Z,12.46
2023-01-11T11:38:34.233Z,11.88
2023-01-11T11:41:17.240Z,11.18
2023-01-11T11:43:46.189Z,11.12
2023-01-11T11:46:19.362Z,11.17
2023-01-11T11:49:10.609Z,11.70
2023-01-11T11:51:38.246Z,11.63
2023-01-11T11:54:04.855Z,11.35
2023-01-11T11:56:37.611Z,11.19
2023-01-11T11:59:09.709Z,10.76
2023-01-11T12:01:39.909Z,10.45
2023-01-11T12:04:15.230Z,10.07
2023-01-11T12:06:42.236Z,9.98
2023-01-11T12:09:27.364Z,9.94
2023-01-11T12:11:54.402Z,10.07
2023-01-11T12:14:28.027Z,10.16
2023-01-11T12:16:54.657Z,10.20
2023-01-11T12:19:30.318Z,10.03
2023-01-11T12:22:18.203Z,9.86
2023-01-11T12:25:02.094Z,10.35
2023-01-11T12:27:38.637Z,10.38
2023-01-11T12:30:20.312Z,10.80
2023-01-11T12:32:52.682Z,11.10
2023-01-11T12:36:03.089Z,12.12
2023-01-11T12:39:15.999Z,12.42
2023-01-11T12:42:00.783Z,12.04
2023-01-11T12:44:40.455Z,11.63
2023-01-11T12:47:25.530Z,10.81
2023-01-11T12:50:11.564Z,10.30
2023-01-11T12:52:44.154Z,10.14
2023-01-11T12:55:40.131Z,10.03
2023-01-11T12:58:54.145Z,9.96
2023-01-11T13:01:39.180Z,10.00
2023-01-11T13:04:45.193Z,10.34
2023-01-11T13:07:22.566Z,11.29
2023-01-11T13:10:04.579Z,11.67
2023-01-11T13:13:05.805Z,11.00
2023-01-11T13:15:48.894Z,11.80
2023-01-11T13:18:23.305Z,12.15
2023-01-11T13:21:02.497Z,10.96
2023-01-11T13:23:47.608Z,10.32
2023-01-11T13:26:42.579Z,10.09
2023-01-11T13:29:24.638Z,10.06
2023-01-11T13:31:52.646Z,10.18
2023-01-11T13:34:23.054Z,10.18
2023-01-11T13:36:59.259Z,10.32
2023-01-11T13:39:31.406Z,10.69
2023-01-11T13:42:48.452Z,10.77
2023-01-11T13:45:23.903Z,10.57
2023-01-11T13:48:14.002Z,10.62
2023-01-11T13:50:47.341Z,10.61
2023-01-11T13:53:31.684Z,10.58
2023-01-11T13:56:09.759Z,10.47
2023-01-11T13:58:53.295Z,10.35
2023-01-11T14:01:41.702Z,10.24
2023-01-11T14:04:22.777Z,10.05
2023-01-11T14:07:04.142Z,9.99
2023-01-11T14:09:49.719Z,9.92
2023-01-11T14:12:42.828Z,9.94
2023-01-11T14:15:14.918Z,9.84
2023-01-11T14:18:05.669Z,9.81
2023-01-11T14:21:13.182Z,9.79
2023-01-11T14:23:49.071Z,9.75
2023-01-11T14:26:33.891Z,9.69
2023-01-11T14:29:10.651Z,9.71
2023-01-11T14:31:58.941Z,9.77
2023-01-11T14:34:49.793Z,9.70
2023-01-11T14:37:26.119Z,9.60
2023-01-11T14:40:32.238Z,9.52
2023-01-11T14:43:24.129Z,9.44
2023-01-11T14:46:11.642Z,9.36
2023-01-11T14:48:53.228Z,9.31
2023-01-11T14:51:33.585Z,9.25
2023-01-11T14:54:10.301Z,9.22
2023-01-11T14:56:46.711Z,9.16
2023-01-11T14:59:25.414Z,9.09
2023-01-11T15:02:23.999Z,9.08
2023-01-11T15:04:54.698Z,9.00
2023-01-11T15:07:24.088Z,8.90
2023-01-11T15:09:53.516Z,8.83
2023-01-11T15:12:23.352Z,8.75
2023-01-11T15:14:55.201Z,8.71
2023-01-11T15:17:44.780Z,8.74
2023-01-11T15:20:17.022Z,8.70
2023-01-11T15:22:44.785Z,8.70
2023-01-11T15:25:23.350Z,8.70
2023-01-11T15:27:51.271Z,8.68
2023-01-11T15:30:29.761Z,8.66
2023-01-11T15:33:17.847Z,8.66
2023-01-11T15:35:56.277Z,8.66
2023-01-11T15:38:56.653Z,8.70
2023-01-11T15:42:05.494Z,8.64
2023-01-11T15:45:02.804Z,8.55
2023-01-11T15:47:51.063Z,8.57
2023-01-11T15:50:32.066Z,8.49
2023-01-11T15:53:20.253Z,8.55
2023-01-11T15:56:35.516Z,8.49
2023-01-11T15:59:10.979Z,8.51
2023-01-11T16:02:14.472Z,8.47
2023-01-11T16:04:48.053Z,8.48
2023-01-11T16:07:33.480Z,8.49
2023-01-11T16:10:13.513Z,8.55
2023-01-11T16:12:59.573Z,8.56
2023-01-11T16:15:38.716Z,8.58
2023-01-11T16:18:16.604Z,8.60
2023-01-11T16:20:55.555Z,8.56
2023-01-11T16:23:22.128Z,8.54
2023-01-11T16:25:56.248Z,8.54
2023-01-11T16:28:22.918Z,8.43
2023-01-11T16:31:03.778Z,8.38
2023-01-11T16:33:33.583Z,8.35
2023-01-11T16:36:07.513Z,8.30
2023-01-11T16:38:56.781Z,8.29
2023-01-11T16:41:27.578Z,8.33
2023-01-11T16:44:02.074Z,8.33
2023-01-11T16:46:46.741Z,8.27
2023-01-11T16:49:17.832Z,8.21
2023-01-11T16:51:45.395Z,8.24
2023-01-11T16:54:23.525Z,8.23
2023-01-11T16:56:50.704Z,8.20
2023-01-11T16:59:24.425Z,8.17
2023-01-11T17:02:05.100Z,8.22
2023-01-11T17:04:34.882Z,8.30
2023-01-11T17:07:13.526Z,8.32
2023-01-11T17:09:42.988Z,8.34
2023-01-11T17:12:16.459Z,8.31
2023-01-11T17:15:01.839Z,8.26
2023-01-11T17:17:33.768Z,8.26
2023-01-11T17:20:01.851Z,8.35
2023-01-11T17:22:32.433Z,8.38
2023-01-11T17:25:01.561Z,8.40
2023-01-11T17:27:40.510Z,8.40
2023-01-11T17:30:17.648Z,8.42
2023-01-11T17:32:47.731Z,8.42
2023-01-11T17:35:26.088Z,8.46
2023-01-11T17:37:56.145Z,8.51
2023-01-11T17:40:34.468Z,8.49
2023-01-11T17:43:42.417Z,8.51
2023-01-11T17:46:20.259Z,8.55
2023-01-11T17:48:55.603Z,8.61
2023-01-11T17:51:41.204Z,8.65
2023-01-11T17:54:18.983Z,8.73
2023-01-11T17:56:54.985Z,8.65
2023-01-11T17:59:26.811Z,8.56
2023-01-11T18:01:57.640Z,8.56
2023-01-11T18:04:26.209Z,8.64
2023-01-11T18:06:55.693Z,8.64
2023-01-11T18:09:29.052Z,8.71
2023-01-11T18:12:11.803Z,8.71
2023-01-11T18:14:45.548Z,8.78
2023-01-11T18:17:36.929Z,8.84
2023-01-11T18:20:10.557Z,8.83
2023-01-11T18:22:43.038Z,8.88
2023-01-11T18:25:18.413Z,8.84
2023-01-11T18:27:46.662Z,8.62
2023-01-11T18:30:31.529Z,8.45
2023-01-11T18:33:03.304Z,8.36
2023-01-11T18:35:30.754Z,8.27
2023-01-11T18:37:57.102Z,8.29
2023-01-11T18:40:23.540Z,8.34
2023-01-11T18:42:51.996Z,8.37
2023-01-11T18:45:18.463Z,8.32
2023-01-11T18:47:44.817Z,8.09
2023-01-11T18:50:12.928Z,7.94
2023-01-11T18:52:39.294Z,7.91
2023-01-11T18:55:07.028Z,7.93
2023-01-11T18:57:33.576Z,7.91
2023-01-11T19:00:00.013Z,7.93
2023-01-11T19:02:42.238Z,8.00
2023-01-11T19:05:14.216Z,8.00
2023-01-11T19:07:40.625Z,8.06
2023-01-11T19:10:08.086Z,8.10
2023-01-11T19:12:35.158Z,8.09
2023-01-11T19:15:01.590Z,8.16
2023-01-11T19:17:28.517Z,8.14
2023-01-11T19:19:54.881Z,8.01
2023-01-11T19:22:24.524Z,7.95
2023-01-11T19:24:53.022Z,7.94
2023-01-11T19:27:19.427Z,7.93
2023-01-11T19:29:45.724Z,7.95
2023-01-11T19:32:12.152Z,7.86
2023-01-11T19:34:39.797Z,7.80
2023-01-11T19:37:06.321Z,7.68
2023-01-11T19:39:32.698Z,7.64
2023-01-11T19:42:01.714Z,7.62
2023-01-11T19:44:33.097Z,7.58
2023-01-11T19:47:15.915Z,7.51
2023-01-11T19:49:43.443Z,7.53
2023-01-11T19:52:13.230Z,7.51
2023-01-11T19:54:43.616Z,7.48
2023-01-11T19:57:17.660Z,7.43
2023-01-11T19:59:44.430Z,7.31
2023-01-11T20:02:12.474Z,7.28
2023-01-11T20:04:39.448Z,7.21
2023-01-11T20:07:07.090Z,7.20
2023-01-11T20:09:33.714Z,7.22
2023-01-11T20:12:00.099Z,7.18
2023-01-11T20:14:26.872Z,7.15
2023-01-11T20:16:53.402Z,7.12
2023-01-11T20:19:19.817Z,7.14
2023-01-11T20:21:46.147Z,7.18
2023-01-11T20:24:13.777Z,7.19
2023-01-11T20:26:41.349Z,7.24
2023-01-11T20:29:08.018Z,7.27
2023-01-11T20:31:35.616Z,7.30
2023-01-11T20:34:11.557Z,7.30
2023-01-11T20:36:38.021Z,7.33
2023-01-11T20:39:05.373Z,7.36
2023-01-11T20:41:50.115Z,7.29
2023-01-11T20:44:17.981Z,7.27
2023-01-11T20:46:47.836Z,7.28
2023-01-11T20:49:14.722Z,7.27
2023-01-11T20:51:41.265Z,7.26
2023-01-11T20:54:08.055Z,7.34
2023-01-11T20:56:34.591Z,7.42
2023-01-11T20:59:01.811Z,7.41
2023-01-11T21:01:28.489Z,7.40
2023-01-11T21:03:57.529Z,7.42
2023-01-11T21:06:23.961Z,7.43
2023-01-11T21:08:54.735Z,7.46
2023-01-11T21:11:21.136Z,7.44
2023-01-11T21:13:47.505Z,7.46
2023-01-11T21:16:15.539Z,7.45
2023-01-11T21:18:43.864Z,7.47
2023-01-11T21:21:14.872Z,7.49
2023-01-11T21:23:41.890Z,7.48
2023-01-11T21:26:12.425Z,7.50
2023-01-11T21:28:40.341Z,7.49
2023-01-11T21:31:08.083Z,7.49
2023-01-11T21:33:36.031Z,7.48
2023-01-11T21:36:05.512Z,7.45
2023-01-11T21:38:32.780Z,7.45
2023-01-11T21:41:10.987Z,7.44
2023-01-11T21:43:37.998Z,7.46
2023-01-11T21:46:06.260Z,7.52
2023-01-11T21:48:33.608Z,7.57
2023-01-11T21:51:00.170Z,7.56
2023-01-11T21:53:31.203Z,7.56
2023-01-11T21:56:02.424Z,7.55
2023-01-11T21:58:28.807Z,7.61
2023-01-11T22:00:55.221Z,7.64
2023-01-11T22:03:26.548Z,7.65
2023-01-11T22:05:54.536Z,7.71
2023-01-11T22:08:20.988Z,7.76
2023-01-11T22:11:01.488Z,7.84
2023-01-11T22:13:35.241Z,7.88
2023-01-11T22:16:03.629Z,7.89
2023-01-11T22:18:30.984Z,7.96
2023-01-11T22:21:03.939Z,7.99
2023-01-11T22:23:30.570Z,8.01
2023-01-11T22:25:56.963Z,8.02
2023-01-11T22:28:23.342Z,8.03
2023-01-11T22:30:49.651Z,8.01
2023-01-11T22:33:16.037Z,8.05
2023-01-11T22:35:42.660Z,8.04
2023-01-11T22:38:09.050Z,8.05
2023-01-11T22:40:35.430Z,8.03
2023-01-11T22:43:02.169Z,8.02
2023-01-11T22:45:28.502Z,8.06
2023-01-11T22:47:54.818Z,8.09
2023-01-11T22:50:21.131Z,8.00
2023-01-11T22:52:47.505Z,8.00
2023-01-11T22:55:13.969Z,8.06
2023-01-11T22:57:40.366Z,8.06
2023-01-11T23:00:08.397Z,8.14
2023-01-11T23:02:34.753Z,8.18
2023-01-11T23:05:01.155Z,8.18
2023-01-11T23:07:27.560Z,8.17
2023-01-11T23:09:53.930Z,8.14
2023-01-11T23:12:52.616Z,8.18
2023-01-11T23:15:18.948Z,8.21
2023-01-11T23:17:46.943Z,8.21
2023-01-11T23:20:13.371Z,8.14
2023-01-11T23:22:39.696Z,8.23
2023-01-11T23:25:06.750Z,8.22
2023-01-11T23:27:33.182Z,8.25
2023-01-11T23:29:59.864Z,8.26
2023-01-11T23:32:26.264Z,8.28
2023-01-11T23:34:52.595Z,8.28
2023-01-11T23:37:18.952Z,8.29
2023-01-11T23:39:45.364Z,8.29
2023-01-11T23:42:26.960Z,8.35
2023-01-11T23:44:57.545Z,8.35
2023-01-11T23:47:25.607Z,8.37
2023-01-11T23:49:54.559Z,8.36
2023-01-11T23:52:23.885Z,8.37
2023-01-11T23:54:50.639Z,8.47
2023-01-11T23:57:18.633Z,8.47
2023-01-11T23:59:45.197Z,8.47
